sensor_id;sensor_type;location;lat;lon;timestamp;pressure;altitude;pressure_sealevel;temperature;humidity
13235;BME280;6683;48.506;9.050;2023-05-20T00:00:57;98170.53;;;14.35;57.96
13235;BME280;6683;48.506;9.050;2023-05-20T00:03:59;98180.34;;;14.34;57.96
13235;BME280;6683;48.506;9.050;2023-05-20T00:07:02;98178.91;;;14.32;57.88
13235;BME280;6683;48.506;9.050;2023-05-20T00:10:06;98176.47;;;14.30;58.06
13235;BME280;6683;48.506;9.050;2023-05-20T00:13:10;98177.25;;;14.31;58.02
13235;BME280;6683;48.506;9.050;2023-05-20T00:16:14;98175.88;;;14.28;58.08
13235;BME280;6683;48.506;9.050;2023-05-20T00:19:16;98176.66;;;14.29;58.24
13235;BME280;6683;48.506;9.050;2023-05-20T00:22:19;98175.00;;;14.28;58.01
13235;BME280;6683;48.506;9.050;2023-05-20T00:25:21;98174.41;;;14.26;58.17
13235;BME280;6683;48.506;9.050;2023-05-20T00:28:24;98170.72;;;14.27;58.24
13235;BME280;6683;48.506;9.050;2023-05-20T00:31:28;98158.47;;;14.26;58.30
13235;BME280;6683;48.506;9.050;2023-05-20T00:34:30;98166.44;;;14.26;58.37
13235;BME280;6683;48.506;9.050;2023-05-20T00:37:32;98163.78;;;14.26;58.31
13235;BME280;6683;48.506;9.050;2023-05-20T00:40:35;98161.34;;;14.24;58.57
13235;BME280;6683;48.506;9.050;2023-05-20T00:43:37;98165.84;;;14.24;58.42
13235;BME280;6683;48.506;9.050;2023-05-20T00:46:41;98159.94;;;14.22;58.36
13235;BME280;6683;48.506;9.050;2023-05-20T00:49:44;98163.41;;;14.22;58.77
13235;BME280;6683;48.506;9.050;2023-05-20T00:52:46;98155.44;;;14.22;58.94
13235;BME280;6683;48.506;9.050;2023-05-20T00:55:51;98148.88;;;14.25;58.97
13235;BME280;6683;48.506;9.050;2023-05-20T00:58:54;98146.81;;;14.27;58.97
13235;BME280;6683;48.506;9.050;2023-05-20T01:01:58;98144.97;;;14.27;59.04
13235;BME280;6683;48.506;9.050;2023-05-20T01:05:01;98145.63;;;14.29;58.96
13235;BME280;6683;48.506;9.050;2023-05-20T01:08:03;98149.09;;;14.30;58.91
13235;BME280;6683;48.506;9.050;2023-05-20T01:11:12;98143.78;;;14.30;58.73
13235;BME280;6683;48.506;9.050;2023-05-20T01:14:17;98140.50;;;14.28;59.01
13235;BME280;6683;48.506;9.050;2023-05-20T01:17:25;98144.16;;;14.27;59.09
13235;BME280;6683;48.506;9.050;2023-05-20T01:20:29;98139.69;;;14.27;59.04
13235;BME280;6683;48.506;9.050;2023-05-20T01:23:37;98128.22;;;14.27;59.29
13235;BME280;6683;48.506;9.050;2023-05-20T01:26:41;98128.22;;;14.27;59.18
13235;BME280;6683;48.506;9.050;2023-05-20T01:29:49;98126.84;;;14.24;59.09
13235;BME280;6683;48.506;9.050;2023-05-20T01:32:57;98120.94;;;14.22;59.16
13235;BME280;6683;48.506;9.050;2023-05-20T01:36:01;98122.75;;;14.22;59.09
13235;BME280;6683;48.506;9.050;2023-05-20T01:39:06;98126.66;;;14.19;59.31
13235;BME280;6683;48.506;9.050;2023-05-20T01:42:09;98124.00;;;14.19;59.41
13235;BME280;6683;48.506;9.050;2023-05-20T01:45:12;98117.06;;;14.18;59.25
13235;BME280;6683;48.506;9.050;2023-05-20T01:48:14;98121.75;;;14.16;59.28
13235;BME280;6683;48.506;9.050;2023-05-20T01:51:17;98121.75;;;14.16;59.39
13235;BME280;6683;48.506;9.050;2023-05-20T01:54:22;98121.75;;;14.16;59.20
13235;BME280;6683;48.506;9.050;2023-05-20T01:57:24;98120.72;;;14.17;59.70
13235;BME280;6683;48.506;9.050;2023-05-20T02:00:27;98117.06;;;14.18;59.57
13235;BME280;6683;48.506;9.050;2023-05-20T02:03:30;98122.16;;;14.20;59.90
13235;BME280;6683;48.506;9.050;2023-05-20T02:06:32;98114.19;;;14.20;59.95
13235;BME280;6683;48.506;9.050;2023-05-20T02:09:37;98110.50;;;14.21;59.84
13235;BME280;6683;48.506;9.050;2023-05-20T02:12:39;98111.31;;;14.21;59.78
13235;BME280;6683;48.506;9.050;2023-05-20T02:15:42;98111.31;;;14.21;59.89
13235;BME280;6683;48.506;9.050;2023-05-20T02:18:44;98117.22;;;14.23;59.91
13235;BME280;6683;48.506;9.050;2023-05-20T02:21:47;98110.50;;;14.21;59.96
13235;BME280;6683;48.506;9.050;2023-05-20T02:24:51;98117.66;;;14.20;59.96
13235;BME280;6683;48.506;9.050;2023-05-20T02:27:53;98110.94;;;14.18;59.99
13235;BME280;6683;48.506;9.050;2023-05-20T02:30:56;98117.25;;;14.17;59.94
13235;BME280;6683;48.506;9.050;2023-05-20T02:33:59;98108.47;;;14.16;59.97
13235;BME280;6683;48.506;9.050;2023-05-20T02:37:01;98114.59;;;14.17;60.02
13235;BME280;6683;48.506;9.050;2023-05-20T02:40:07;98126.25;;;14.16;60.05
13235;BME280;6683;48.506;9.050;2023-05-20T02:43:10;98124.41;;;14.16;60.51
13235;BME280;6683;48.506;9.050;2023-05-20T02:46:12;98123.78;;;14.14;60.04
13235;BME280;6683;48.506;9.050;2023-05-20T02:49:15;98124.22;;;14.11;60.13
13235;BME280;6683;48.506;9.050;2023-05-20T02:52:18;98129.53;;;14.11;60.16
13235;BME280;6683;48.506;9.050;2023-05-20T02:55:22;98125.69;;;14.07;60.15
13235;BME280;6683;48.506;9.050;2023-05-20T02:58:24;98120.59;;;14.06;59.85
13235;BME280;6683;48.506;9.050;2023-05-20T03:01:27;98119.16;;;14.03;60.16
13235;BME280;6683;48.506;9.050;2023-05-20T03:04:29;98116.09;;;14.00;60.03
13235;BME280;6683;48.506;9.050;2023-05-20T03:07:33;98114.69;;;13.97;60.27
13235;BME280;6683;48.506;9.050;2023-05-20T03:10:38;98111.63;;;13.94;60.24
13235;BME280;6683;48.506;9.050;2023-05-20T03:13:40;98113.50;;;13.93;60.28
13235;BME280;6683;48.506;9.050;2023-05-20T03:16:42;98119.19;;;13.90;60.29
13235;BME280;6683;48.506;9.050;2023-05-20T03:19:45;98110.25;;;13.85;60.21
13235;BME280;6683;48.506;9.050;2023-05-20T03:22:47;98115.97;;;13.82;60.28
13235;BME280;6683;48.506;9.050;2023-05-20T03:25:51;98114.53;;;13.79;60.38
13235;BME280;6683;48.506;9.050;2023-05-20T03:28:54;98119.03;;;13.79;60.50
13235;BME280;6683;48.506;9.050;2023-05-20T03:31:56;98117.00;;;13.81;60.45
13235;BME280;6683;48.506;9.050;2023-05-20T03:34:59;98117.19;;;13.79;60.57
13235;BME280;6683;48.506;9.050;2023-05-20T03:38:01;98115.97;;;13.82;60.78
13235;BME280;6683;48.506;9.050;2023-05-20T03:41:05;98116.34;;;13.85;60.69
13235;BME280;6683;48.506;9.050;2023-05-20T03:44:08;98117.59;;;13.89;60.79
13235;BME280;6683;48.506;9.050;2023-05-20T03:47:10;98122.69;;;13.91;60.88
13235;BME280;6683;48.506;9.050;2023-05-20T03:50:13;98116.16;;;13.93;60.91
13235;BME280;6683;48.506;9.050;2023-05-20T03:53:15;98119.19;;;13.97;61.01
13235;BME280;6683;48.506;9.050;2023-05-20T03:56:21;98114.47;;;13.99;60.89
13235;BME280;6683;48.506;9.050;2023-05-20T03:59:24;98107.53;;;13.98;60.79
13235;BME280;6683;48.506;9.050;2023-05-20T04:02:27;98112.66;;;13.99;61.15
13235;BME280;6683;48.506;9.050;2023-05-20T04:05:29;98110.78;;;14.00;61.20
13235;BME280;6683;48.506;9.050;2023-05-20T04:08:31;98108.75;;;14.02;61.09
13235;BME280;6683;48.506;9.050;2023-05-20T04:11:37;98111.19;;;14.03;61.20
13235;BME280;6683;48.506;9.050;2023-05-20T04:14:40;98110.38;;;14.03;61.41
13235;BME280;6683;48.506;9.050;2023-05-20T04:17:43;98104.44;;;14.07;61.19
13235;BME280;6683;48.506;9.050;2023-05-20T04:20:48;98101.56;;;14.09;61.26
13235;BME280;6683;48.506;9.050;2023-05-20T04:23:50;98105.22;;;14.14;61.14
13235;BME280;6683;48.506;9.050;2023-05-20T04:26:54;98107.25;;;14.19;61.31
13235;BME280;6683;48.506;9.050;2023-05-20T04:29:57;98112.75;;;14.24;61.47
13235;BME280;6683;48.506;9.050;2023-05-20T04:32:59;98109.66;;;14.27;61.26
13235;BME280;6683;48.506;9.050;2023-05-20T04:36:06;98107.22;;;14.32;61.22
13235;BME280;6683;48.506;9.050;2023-05-20T04:39:13;98110.25;;;14.35;61.49
13235;BME280;6683;48.506;9.050;2023-05-20T04:42:17;98108.81;;;14.39;61.34
13235;BME280;6683;48.506;9.050;2023-05-20T04:45:21;98117.19;;;14.43;61.36
13235;BME280;6683;48.506;9.050;2023-05-20T04:48:24;98122.66;;;14.48;61.43
13235;BME280;6683;48.506;9.050;2023-05-20T04:51:27;98115.09;;;14.52;61.53
13235;BME280;6683;48.506;9.050;2023-05-20T04:54:31;98124.25;;;14.56;61.47
13235;BME280;6683;48.506;9.050;2023-05-20T04:57:35;98109.94;;;14.57;61.36
13235;BME280;6683;48.506;9.050;2023-05-20T05:00:39;98108.47;;;14.61;61.26
13235;BME280;6683;48.506;9.050;2023-05-20T05:03:41;98107.69;;;14.60;61.24
13235;BME280;6683;48.506;9.050;2023-05-20T05:06:44;98102.16;;;14.62;61.14
13235;BME280;6683;48.506;9.050;2023-05-20T05:09:48;98101.72;;;14.65;61.44
13235;BME280;6683;48.506;9.050;2023-05-20T05:12:52;98088.22;;;14.66;61.50
13235;BME280;6683;48.506;9.050;2023-05-20T05:15:58;98088.38;;;14.71;61.55
13235;BME280;6683;48.506;9.050;2023-05-20T05:19:01;98091.22;;;14.76;61.34
13235;BME280;6683;48.506;9.050;2023-05-20T05:22:04;98091.19;;;14.83;61.45
13235;BME280;6683;48.506;9.050;2023-05-20T05:25:08;98089.25;;;14.90;61.31
13235;BME280;6683;48.506;9.050;2023-05-20T05:28:12;98093.94;;;14.94;61.25
13235;BME280;6683;48.506;9.050;2023-05-20T05:31:15;98086.16;;;14.99;61.42
13235;BME280;6683;48.506;9.050;2023-05-20T05:34:17;98091.19;;;15.07;61.47
13235;BME280;6683;48.506;9.050;2023-05-20T05:37:19;98085.00;;;15.13;61.39
13235;BME280;6683;48.506;9.050;2023-05-20T05:40:22;98081.69;;;15.18;61.37
13235;BME280;6683;48.506;9.050;2023-05-20T05:43:26;98080.00;;;15.23;61.38
13235;BME280;6683;48.506;9.050;2023-05-20T05:46:29;98084.44;;;15.30;61.15
13235;BME280;6683;48.506;9.050;2023-05-20T05:49:31;98078.47;;;15.34;61.35
13235;BME280;6683;48.506;9.050;2023-05-20T05:52:33;98087.00;;;15.43;61.16
13235;BME280;6683;48.506;9.050;2023-05-20T05:55:36;98076.06;;;15.51;61.33
13235;BME280;6683;48.506;9.050;2023-05-20T05:58:40;98078.66;;;15.57;61.06
13235;BME280;6683;48.506;9.050;2023-05-20T06:01:42;98071.44;;;15.64;60.90
13235;BME280;6683;48.506;9.050;2023-05-20T06:04:44;98069.50;;;15.71;60.84
13235;BME280;6683;48.506;9.050;2023-05-20T06:07:47;98075.34;;;15.80;60.87
13235;BME280;6683;48.506;9.050;2023-05-20T06:10:50;98068.69;;;15.89;60.83
13235;BME280;6683;48.506;9.050;2023-05-20T06:13:54;98066.56;;;15.97;60.51
13235;BME280;6683;48.506;9.050;2023-05-20T06:16:57;98063.13;;;16.09;60.45
13235;BME280;6683;48.506;9.050;2023-05-20T06:19:59;98055.63;;;16.17;60.29
13235;BME280;6683;48.506;9.050;2023-05-20T06:23:02;98054.28;;;16.26;60.37
13235;BME280;6683;48.506;9.050;2023-05-20T06:26:04;98056.41;;;16.36;60.35
13235;BME280;6683;48.506;9.050;2023-05-20T06:29:08;98054.81;;;16.46;60.22
13235;BME280;6683;48.506;9.050;2023-05-20T06:32:11;98062.66;;;16.59;59.79
13235;BME280;6683;48.506;9.050;2023-05-20T06:35:13;98052.81;;;16.71;59.83
13235;BME280;6683;48.506;9.050;2023-05-20T06:38:16;98056.31;;;16.84;59.58
13235;BME280;6683;48.506;9.050;2023-05-20T06:41:18;98049.38;;;16.94;59.21
13235;BME280;6683;48.506;9.050;2023-05-20T06:44:23;98053.09;;;17.05;59.42
13235;BME280;6683;48.506;9.050;2023-05-20T06:47:26;98046.75;;;17.17;59.25
13235;BME280;6683;48.506;9.050;2023-05-20T06:50:28;98029.94;;;17.28;59.03
13235;BME280;6683;48.506;9.050;2023-05-20T06:53:31;98032.94;;;17.43;58.97
13235;BME280;6683;48.506;9.050;2023-05-20T06:56:33;98034.78;;;17.54;58.92
13235;BME280;6683;48.506;9.050;2023-05-20T06:59:37;98034.22;;;17.64;58.84
13235;BME280;6683;48.506;9.050;2023-05-20T07:02:40;98027.22;;;17.75;58.64
13235;BME280;6683;48.506;9.050;2023-05-20T07:05:43;98014.97;;;17.90;58.35
13235;BME280;6683;48.506;9.050;2023-05-20T07:08:46;98017.72;;;18.07;58.48
13235;BME280;6683;48.506;9.050;2023-05-20T07:11:48;98015.91;;;18.24;58.10
13235;BME280;6683;48.506;9.050;2023-05-20T07:14:52;98024.53;;;18.43;57.71
13235;BME280;6683;48.506;9.050;2023-05-20T07:17:54;98026.94;;;18.56;57.63
13235;BME280;6683;48.506;9.050;2023-05-20T07:20:57;98026.06;;;18.67;57.42
13235;BME280;6683;48.506;9.050;2023-05-20T07:24:00;98020.31;;;18.75;57.04
13235;BME280;6683;48.506;9.050;2023-05-20T07:27:02;98017.78;;;18.85;56.99
13235;BME280;6683;48.506;9.050;2023-05-20T07:30:08;98015.59;;;18.98;56.73
13235;BME280;6683;48.506;9.050;2023-05-20T07:33:11;98009.66;;;19.13;56.48
13235;BME280;6683;48.506;9.050;2023-05-20T07:36:13;97993.50;;;19.25;56.29
13235;BME280;6683;48.506;9.050;2023-05-20T07:39:16;97982.25;;;19.39;55.95
13235;BME280;6683;48.506;9.050;2023-05-20T07:42:19;97975.47;;;19.53;55.64
13235;BME280;6683;48.506;9.050;2023-05-20T07:45:23;97976.13;;;19.65;55.44
13235;BME280;6683;48.506;9.050;2023-05-20T07:48:25;97972.28;;;19.78;55.06
13235;BME280;6683;48.506;9.050;2023-05-20T07:51:28;97973.19;;;19.88;55.17
13235;BME280;6683;48.506;9.050;2023-05-20T07:54:31;97978.19;;;20.02;54.87
13235;BME280;6683;48.506;9.050;2023-05-20T07:57:33;97976.00;;;20.20;54.64
13235;BME280;6683;48.506;9.050;2023-05-20T08:00:38;97986.13;;;20.45;54.12
13235;BME280;6683;48.506;9.050;2023-05-20T08:03:40;97988.16;;;20.59;54.00
13235;BME280;6683;48.506;9.050;2023-05-20T08:06:43;97999.50;;;20.71;53.73
13235;BME280;6683;48.506;9.050;2023-05-20T08:09:45;98004.13;;;20.76;53.21
13235;BME280;6683;48.506;9.050;2023-05-20T08:12:47;98000.94;;;20.84;52.79
13235;BME280;6683;48.506;9.050;2023-05-20T08:15:53;98012.56;;;20.95;52.72
13235;BME280;6683;48.506;9.050;2023-05-20T08:18:56;98009.50;;;21.08;52.24
13235;BME280;6683;48.506;9.050;2023-05-20T08:21:58;97999.69;;;21.23;51.78
13235;BME280;6683;48.506;9.050;2023-05-20T08:25:01;97991.69;;;21.33;51.29
13235;BME280;6683;48.506;9.050;2023-05-20T08:28:04;97985.53;;;21.43;50.61
13235;BME280;6683;48.506;9.050;2023-05-20T08:31:08;97987.22;;;21.54;50.49
13235;BME280;6683;48.506;9.050;2023-05-20T08:34:10;97987.25;;;21.64;50.02
13235;BME280;6683;48.506;9.050;2023-05-20T08:37:13;97980.59;;;21.77;49.91
13235;BME280;6683;48.506;9.050;2023-05-20T08:40:15;97976.91;;;21.93;49.55
13235;BME280;6683;48.506;9.050;2023-05-20T08:43:18;97976.44;;;22.11;49.21
13235;BME280;6683;48.506;9.050;2023-05-20T08:46:22;97979.97;;;22.21;48.80
13235;BME280;6683;48.506;9.050;2023-05-20T08:49:25;97979.44;;;22.30;48.35
13235;BME280;6683;48.506;9.050;2023-05-20T08:52:28;97978.63;;;22.39;48.67
13235;BME280;6683;48.506;9.050;2023-05-20T08:55:42;97974.88;;;22.55;48.08
13235;BME280;6683;48.506;9.050;2023-05-20T08:58:44;97981.38;;;22.64;47.71
13235;BME280;6683;48.506;9.050;2023-05-20T09:01:48;97978.44;;;22.71;47.74
13235;BME280;6683;48.506;9.050;2023-05-20T09:04:51;97973.84;;;22.76;47.37
13235;BME280;6683;48.506;9.050;2023-05-20T09:08:04;97966.03;;;22.90;47.30
13235;BME280;6683;48.506;9.050;2023-05-20T09:11:09;97962.78;;;23.03;46.92
13235;BME280;6683;48.506;9.050;2023-05-20T09:14:11;97958.72;;;23.16;46.83
13235;BME280;6683;48.506;9.050;2023-05-20T09:17:15;97951.16;;;23.28;46.68
13235;BME280;6683;48.506;9.050;2023-05-20T09:20:21;97953.81;;;23.43;46.55
13235;BME280;6683;48.506;9.050;2023-05-20T09:23:27;97963.50;;;23.59;45.92
13235;BME280;6683;48.506;9.050;2023-05-20T09:26:31;97964.28;;;23.64;45.72
13235;BME280;6683;48.506;9.050;2023-05-20T09:29:33;97959.34;;;23.76;45.69
13235;BME280;6683;48.506;9.050;2023-05-20T09:32:37;97954.19;;;23.90;45.30
13235;BME280;6683;48.506;9.050;2023-05-20T09:35:41;97947.38;;;24.03;45.02
13235;BME280;6683;48.506;9.050;2023-05-20T09:38:43;97945.41;;;24.18;44.73
13235;BME280;6683;48.506;9.050;2023-05-20T09:41:56;97946.13;;;24.34;44.33
13235;BME280;6683;48.506;9.050;2023-05-20T09:45:05;97954.38;;;24.47;43.91
13235;BME280;6683;48.506;9.050;2023-05-20T09:48:11;97951.59;;;24.57;43.38
13235;BME280;6683;48.506;9.050;2023-05-20T09:51:15;97950.22;;;24.65;43.40
13235;BME280;6683;48.506;9.050;2023-05-20T09:54:19;97945.56;;;24.76;43.37
13235;BME280;6683;48.506;9.050;2023-05-20T09:57:25;97949.81;;;24.82;42.87
13235;BME280;6683;48.506;9.050;2023-05-20T10:00:31;97941.66;;;24.87;42.66
13235;BME280;6683;48.506;9.050;2023-05-20T10:03:35;97932.47;;;24.88;42.74
13235;BME280;6683;48.506;9.050;2023-05-20T10:06:56;97928.13;;;24.92;42.93
13235;BME280;6683;48.506;9.050;2023-05-20T10:10:16;97927.78;;;24.98;42.68
13235;BME280;6683;48.506;9.050;2023-05-20T10:13:41;97913.09;;;25.09;42.50
13235;BME280;6683;48.506;9.050;2023-05-20T10:16:50;97919.97;;;25.20;42.26
13235;BME280;6683;48.506;9.050;2023-05-20T10:20:00;97920.22;;;25.24;41.99
13235;BME280;6683;48.506;9.050;2023-05-20T10:23:20;97930.53;;;25.22;42.06
13235;BME280;6683;48.506;9.050;2023-05-20T10:26:53;97921.72;;;25.11;42.07
13235;BME280;6683;48.506;9.050;2023-05-20T10:29:58;97925.97;;;25.17;42.30
13235;BME280;6683;48.506;9.050;2023-05-20T10:33:04;97918.31;;;25.24;42.28
13235;BME280;6683;48.506;9.050;2023-05-20T10:36:09;97911.50;;;25.32;41.85
13235;BME280;6683;48.506;9.050;2023-05-20T10:39:14;97907.59;;;25.43;41.99
13235;BME280;6683;48.506;9.050;2023-05-20T10:42:27;97910.97;;;25.54;41.29
13235;BME280;6683;48.506;9.050;2023-05-20T10:45:30;97902.47;;;25.65;41.06
13235;BME280;6683;48.506;9.050;2023-05-20T10:48:41;97894.94;;;25.81;40.51
13235;BME280;6683;48.506;9.050;2023-05-20T10:51:47;97882.88;;;25.92;40.32
13235;BME280;6683;48.506;9.050;2023-05-20T10:54:57;97883.09;;;25.95;40.24
13235;BME280;6683;48.506;9.050;2023-05-20T10:58:00;97888.09;;;26.07;40.09
13235;BME280;6683;48.506;9.050;2023-05-20T11:01:03;97881.31;;;26.09;39.47
13235;BME280;6683;48.506;9.050;2023-05-20T11:04:07;97875.59;;;26.11;38.92
13235;BME280;6683;48.506;9.050;2023-05-20T11:07:23;97867.16;;;26.31;39.08
13235;BME280;6683;48.506;9.050;2023-05-20T11:10:26;97852.31;;;26.61;38.80
13235;BME280;6683;48.506;9.050;2023-05-20T11:13:30;97858.22;;;26.63;38.78
13235;BME280;6683;48.506;9.050;2023-05-20T11:16:38;97849.38;;;26.76;38.62
13235;BME280;6683;48.506;9.050;2023-05-20T11:19:40;97850.38;;;26.80;38.20
13235;BME280;6683;48.506;9.050;2023-05-20T11:22:48;97847.53;;;26.71;38.19
13235;BME280;6683;48.506;9.050;2023-05-20T11:25:52;97844.50;;;26.59;38.00
13235;BME280;6683;48.506;9.050;2023-05-20T11:28:55;97848.78;;;26.47;38.26
13235;BME280;6683;48.506;9.050;2023-05-20T11:31:59;97850.72;;;26.28;38.35
13235;BME280;6683;48.506;9.050;2023-05-20T11:35:03;97840.75;;;26.09;38.89
13235;BME280;6683;48.506;9.050;2023-05-20T11:38:09;97845.84;;;25.92;38.94
13235;BME280;6683;48.506;9.050;2023-05-20T11:41:12;97848.09;;;25.85;39.06
13235;BME280;6683;48.506;9.050;2023-05-20T11:44:15;97838.22;;;25.94;39.21
13235;BME280;6683;48.506;9.050;2023-05-20T11:47:24;97841.59;;;26.05;38.76
13235;BME280;6683;48.506;9.050;2023-05-20T11:50:27;97830.94;;;26.13;38.69
13235;BME280;6683;48.506;9.050;2023-05-20T11:53:32;97833.22;;;26.39;38.41
13235;BME280;6683;48.506;9.050;2023-05-20T11:56:38;97818.81;;;26.70;38.00
13235;BME280;6683;48.506;9.050;2023-05-20T11:59:43;97819.69;;;26.84;38.06
13235;BME280;6683;48.506;9.050;2023-05-20T12:02:48;97808.34;;;26.96;37.81
13235;BME280;6683;48.506;9.050;2023-05-20T12:05:52;97816.25;;;27.06;37.44
13235;BME280;6683;48.506;9.050;2023-05-20T12:08:57;97804.72;;;27.14;37.55
13235;BME280;6683;48.506;9.050;2023-05-20T12:12:00;97799.59;;;27.26;37.10
13235;BME280;6683;48.506;9.050;2023-05-20T12:15:03;97798.78;;;27.39;37.23
13235;BME280;6683;48.506;9.050;2023-05-20T12:18:05;97793.16;;;27.49;36.80
13235;BME280;6683;48.506;9.050;2023-05-20T12:21:08;97800.44;;;27.62;36.49
13235;BME280;6683;48.506;9.050;2023-05-20T12:24:12;97800.66;;;27.66;36.26
13235;BME280;6683;48.506;9.050;2023-05-20T12:27:15;97803.66;;;27.64;36.15
13235;BME280;6683;48.506;9.050;2023-05-20T12:30:20;97792.63;;;27.61;36.13
13235;BME280;6683;48.506;9.050;2023-05-20T12:33:22;97793.22;;;27.58;36.42
13235;BME280;6683;48.506;9.050;2023-05-20T12:36:27;97795.22;;;27.66;36.18
13235;BME280;6683;48.506;9.050;2023-05-20T12:39:31;97790.47;;;27.72;36.14
13235;BME280;6683;48.506;9.050;2023-05-20T12:42:34;97787.59;;;27.68;36.34
13235;BME280;6683;48.506;9.050;2023-05-20T12:45:36;97773.81;;;27.64;35.96
13235;BME280;6683;48.506;9.050;2023-05-20T12:48:39;97784.56;;;27.69;35.66
13235;BME280;6683;48.506;9.050;2023-05-20T12:51:41;97787.34;;;27.78;35.83
13235;BME280;6683;48.506;9.050;2023-05-20T12:54:45;97771.31;;;27.90;35.74
13235;BME280;6683;48.506;9.050;2023-05-20T12:57:47;97764.16;;;28.08;35.50
13235;BME280;6683;48.506;9.050;2023-05-20T13:00:51;97758.03;;;28.24;35.24
13235;BME280;6683;48.506;9.050;2023-05-20T13:03:53;97751.38;;;28.39;35.04
13235;BME280;6683;48.506;9.050;2023-05-20T13:06:56;97741.22;;;28.53;34.73
13235;BME280;6683;48.506;9.050;2023-05-20T13:10:00;97744.66;;;28.67;34.58
13235;BME280;6683;48.506;9.050;2023-05-20T13:13:02;97738.31;;;28.80;34.53
13235;BME280;6683;48.506;9.050;2023-05-20T13:16:05;97740.72;;;28.82;34.51
13235;BME280;6683;48.506;9.050;2023-05-20T13:19:07;97749.97;;;28.72;33.99
13235;BME280;6683;48.506;9.050;2023-05-20T13:22:10;97742.81;;;28.54;34.29
13235;BME280;6683;48.506;9.050;2023-05-20T13:25:14;97745.31;;;28.42;34.30
13235;BME280;6683;48.506;9.050;2023-05-20T13:28:19;97738.53;;;28.31;34.16
13235;BME280;6683;48.506;9.050;2023-05-20T13:31:22;97728.59;;;28.18;34.67
13235;BME280;6683;48.506;9.050;2023-05-20T13:34:24;97727.13;;;28.12;34.74
13235;BME280;6683;48.506;9.050;2023-05-20T13:37:27;97734.78;;;28.10;34.61
13235;BME280;6683;48.506;9.050;2023-05-20T13:40:31;97725.03;;;28.09;34.58
13235;BME280;6683;48.506;9.050;2023-05-20T13:43:34;97725.13;;;28.04;34.20
13235;BME280;6683;48.506;9.050;2023-05-20T13:46:36;97716.13;;;27.95;34.16
13235;BME280;6683;48.506;9.050;2023-05-20T13:49:39;97722.50;;;27.90;34.24
13235;BME280;6683;48.506;9.050;2023-05-20T13:52:42;97715.44;;;27.89;34.36
13235;BME280;6683;48.506;9.050;2023-05-20T13:55:46;97707.19;;;27.94;34.39
13235;BME280;6683;48.506;9.050;2023-05-20T13:58:48;97715.25;;;27.99;34.49
13235;BME280;6683;48.506;9.050;2023-05-20T14:01:53;97703.44;;;28.04;34.49
13235;BME280;6683;48.506;9.050;2023-05-20T14:04:55;97692.47;;;28.09;34.54
13235;BME280;6683;48.506;9.050;2023-05-20T14:07:58;97693.13;;;28.14;34.06
13235;BME280;6683;48.506;9.050;2023-05-20T14:11:02;97681.34;;;28.19;34.21
13235;BME280;6683;48.506;9.050;2023-05-20T14:14:05;97676.38;;;28.21;34.17
13235;BME280;6683;48.506;9.050;2023-05-20T14:17:08;97676.22;;;28.17;33.97
13235;BME280;6683;48.506;9.050;2023-05-20T14:20:11;97679.06;;;28.12;34.05
13235;BME280;6683;48.506;9.050;2023-05-20T14:23:13;97677.59;;;28.06;33.73
13235;BME280;6683;48.506;9.050;2023-05-20T14:26:17;97676.44;;;27.99;34.12
13235;BME280;6683;48.506;9.050;2023-05-20T14:29:21;97677.66;;;27.93;33.73
13235;BME280;6683;48.506;9.050;2023-05-20T14:32:23;97678.09;;;27.86;33.98
13235;BME280;6683;48.506;9.050;2023-05-20T14:35:26;97672.00;;;27.81;33.49
13235;BME280;6683;48.506;9.050;2023-05-20T14:38:28;97670.03;;;27.73;33.45
13235;BME280;6683;48.506;9.050;2023-05-20T14:41:32;97668.06;;;27.64;33.55
13235;BME280;6683;48.506;9.050;2023-05-20T14:44:34;97670.91;;;27.59;33.53
13235;BME280;6683;48.506;9.050;2023-05-20T14:47:37;97670.53;;;27.52;33.48
13235;BME280;6683;48.506;9.050;2023-05-20T14:50:39;97677.19;;;27.46;33.38
13235;BME280;6683;48.506;9.050;2023-05-20T14:53:42;97676.19;;;27.42;33.59
13235;BME280;6683;48.506;9.050;2023-05-20T14:56:46;97676.19;;;27.42;33.53
13235;BME280;6683;48.506;9.050;2023-05-20T14:59:48;97679.03;;;27.37;33.75
13235;BME280;6683;48.506;9.050;2023-05-20T15:02:52;97683.16;;;27.35;34.04
13235;BME280;6683;48.506;9.050;2023-05-20T15:05:55;97668.28;;;27.32;33.72
13235;BME280;6683;48.506;9.050;2023-05-20T15:08:57;97666.50;;;27.28;33.96
13235;BME280;6683;48.506;9.050;2023-05-20T15:12:02;97665.59;;;27.19;33.64
13235;BME280;6683;48.506;9.050;2023-05-20T15:15:06;97669.72;;;27.16;33.85
13235;BME280;6683;48.506;9.050;2023-05-20T15:18:09;97681.38;;;27.17;33.91
13235;BME280;6683;48.506;9.050;2023-05-20T15:21:12;97674.06;;;27.17;33.71
13235;BME280;6683;48.506;9.050;2023-05-20T15:24:14;97673.94;;;27.22;34.05
13235;BME280;6683;48.506;9.050;2023-05-20T15:27:19;97688.78;;;27.25;33.75
13235;BME280;6683;48.506;9.050;2023-05-20T15:30:21;97682.75;;;27.28;34.11
13235;BME280;6683;48.506;9.050;2023-05-20T15:33:24;97689.38;;;27.35;33.68
13235;BME280;6683;48.506;9.050;2023-05-20T15:36:26;97679.50;;;27.39;33.63
13235;BME280;6683;48.506;9.050;2023-05-20T15:39:28;97684.84;;;27.44;33.60
13235;BME280;6683;48.506;9.050;2023-05-20T15:42:32;97673.50;;;27.42;33.35
13235;BME280;6683;48.506;9.050;2023-05-20T15:45:34;97682.22;;;27.39;33.19
13235;BME280;6683;48.506;9.050;2023-05-20T15:48:37;97686.56;;;27.40;33.28
13235;BME280;6683;48.506;9.050;2023-05-20T15:51:39;97678.91;;;27.42;33.31
13235;BME280;6683;48.506;9.050;2023-05-20T15:54:42;97685.31;;;27.46;33.40
13235;BME280;6683;48.506;9.050;2023-05-20T15:57:48;97678.50;;;27.49;33.19
13235;BME280;6683;48.506;9.050;2023-05-20T16:00:50;97673.56;;;27.51;33.65
13235;BME280;6683;48.506;9.050;2023-05-20T16:03:52;97674.84;;;27.53;33.36
13235;BME280;6683;48.506;9.050;2023-05-20T16:06:56;97670.22;;;27.54;33.47
13235;BME280;6683;48.506;9.050;2023-05-20T16:09:58;97668.00;;;27.56;33.32
13235;BME280;6683;48.506;9.050;2023-05-20T16:13:02;97661.31;;;27.53;32.90
13235;BME280;6683;48.506;9.050;2023-05-20T16:16:05;97665.22;;;27.47;33.27
13235;BME280;6683;48.506;9.050;2023-05-20T16:19:08;97655.59;;;27.41;32.85
13235;BME280;6683;48.506;9.050;2023-05-20T16:22:11;97657.72;;;27.44;32.93
13235;BME280;6683;48.506;9.050;2023-05-20T16:25:14;97642.94;;;27.50;33.10